Time;durP1;ratioP1;P1;durP2;ratioP2;P2;SDS_P1;SDS_P2;PMS_P1;PMS_P2;Temp;Humidity;BMP_temperature;BMP_pressure;BME280_temperature;BME280_humidity;BME280_pressure;Samples;Min_cycle;Max_cycle;Signal;HPM_P1;HPM_P2
2022/03/15 00:01:23;;;;;;;;;9.33;8.00;;;;;12.20;53.37;101678.47;5076022;27;45404;-62
2022/03/15 00:03:48;;;;;;;;;8.33;6.00;;;;;12.19;52.48;101668.81;5075615;27;45469;-62
2022/03/15 00:06:14;;;;;;;;;9.33;8.00;;;;;12.16;52.52;101672.41;5076222;27;45381;-62
2022/03/15 00:08:40;;;;;;;;;8.00;8.00;;;;;12.13;52.40;101670.72;5076188;28;45375;-62
2022/03/15 00:11:07;;;;;;;;;6.00;4.33;;;;;12.11;52.90;101674.28;5075425;28;45487;-61
2022/03/15 00:13:38;;;;;;;;;5.33;5.33;;;;;12.08;52.82;101659.41;5076061;27;45433;-62
2022/03/15 00:16:04;;;;;;;;;8.00;6.33;;;;;12.10;53.05;101662.03;5076125;28;45437;-62
2022/03/15 00:18:30;;;;;;;;;8.00;8.00;;;;;12.10;53.33;101665.50;5074139;28;45442;-62
2022/03/15 00:20:57;;;;;;;;;8.00;8.00;;;;;12.09;53.24;101655.88;5075140;28;45915;-62
2022/03/15 00:23:22;;;;;;;;;9.33;7.67;;;;;12.09;52.99;101647.09;5074339;28;45352;-62
2022/03/15 00:25:48;;;;;;;;;8.67;8.67;;;;;12.10;53.40;101654.97;5075679;28;45423;-62
2022/03/15 00:28:14;;;;;;;;;6.33;6.33;;;;;12.10;53.34;101662.03;5075707;27;45570;-63
2022/03/15 00:30:39;;;;;;;;;5.67;5.67;;;;;12.09;52.72;101655.88;5075507;28;45921;-62
2022/03/15 00:33:05;;;;;;;;;8.67;8.00;;;;;12.07;52.89;101659.47;5075776;27;45459;-62
2022/03/15 00:35:31;;;;;;;;;8.67;8.00;;;;;12.07;52.87;101656.81;5075463;27;45533;-62
2022/03/15 00:37:56;;;;;;;;;10.00;8.00;;;;;12.05;53.39;101656.84;5075745;27;45385;-62
2022/03/15 00:40:23;;;;;;;;;9.00;6.00;;;;;12.07;53.66;101659.47;5075020;28;45440;-62
2022/03/15 00:42:52;;;;;;;;;7.00;5.00;;;;;12.07;54.21;101660.31;5075694;27;45484;-63
2022/03/15 00:45:22;;;;;;;;;5.33;5.33;;;;;12.08;53.40;101659.41;5075602;27;45410;-62
2022/03/15 00:47:49;;;;;;;;;9.67;9.33;;;;;12.10;53.73;101646.19;5076974;28;45406;-63
2022/03/15 00:50:14;;;;;;;;;7.67;7.67;;;;;12.11;53.84;101647.91;5078726;28;46444;-62
2022/03/15 00:52:39;;;;;;;;;8.00;8.00;;;;;12.10;53.89;101636.50;5078840;27;45469;-62
2022/03/15 00:55:05;;;;;;;;;6.67;6.67;;;;;12.10;53.12;101644.41;5079168;27;45402;-62
2022/03/15 00:57:32;;;;;;;;;5.67;5.00;;;;;12.10;53.63;101644.41;5079033;27;45382;-61
2022/03/15 00:59:57;;;;;;;;;6.00;6.00;;;;;12.11;53.85;101635.59;5078759;27;45435;-61
2022/03/15 01:02:23;;;;;;;;;5.67;5.67;;;;;12.12;53.63;101634.72;5078524;27;45469;-62
2022/03/15 01:04:48;;;;;;;;;5.67;5.33;;;;;12.15;54.32;101625.84;5079092;27;45383;-63
2022/03/15 01:07:14;;;;;;;;;5.00;5.00;;;;;12.18;54.38;101628.41;5079010;28;45461;-62
2022/03/15 01:09:39;;;;;;;;;9.00;9.00;;;;;12.18;54.44;101627.56;5078484;27;46133;-61
2022/03/15 01:12:05;;;;;;;;;5.33;5.33;;;;;12.21;53.13;101630.09;5078842;28;45436;-61
2022/03/15 01:14:31;;;;;;;;;10.33;7.00;;;;;12.20;53.35;101631.00;5078848;27;45415;-61
2022/03/15 01:16:57;;;;;;;;;5.00;5.00;;;;;12.19;53.96;101631.91;5078901;27;45570;-61
2022/03/15 01:19:23;;;;;;;;;6.00;4.67;;;;;12.18;53.76;101617.00;5078414;27;45803;-62
2022/03/15 01:21:50;;;;;;;;;5.00;5.00;;;;;12.15;52.96;101616.16;5078232;28;45509;-61
2022/03/15 01:24:15;;;;;;;;;8.00;6.33;;;;;12.12;53.46;101610.97;5078239;28;45439;-62
2022/03/15 01:26:42;;;;;;;;;6.00;5.00;;;;;12.12;53.76;101608.34;5078528;27;45480;-62
2022/03/15 01:29:07;;;;;;;;;8.33;5.67;;;;;12.10;53.93;101598.72;5078047;27;45511;-62
2022/03/15 01:31:32;;;;;;;;;6.00;4.67;;;;;12.06;54.05;101603.22;5077782;28;45552;-62
2022/03/15 01:33:58;;;;;;;;;4.67;4.00;;;;;12.07;54.34;101606.72;5078395;28;45390;-62
2022/03/15 01:36:23;;;;;;;;;4.00;4.00;;;;;12.04;53.70;101599.75;5078422;27;45514;-61
2022/03/15 01:38:52;;;;;;;;;6.33;6.33;;;;;12.02;53.74;101598.91;5078159;28;46212;-62
2022/03/15 01:41:18;;;;;;;;;6.33;5.00;;;;;12.01;53.83;101601.59;5076516;27;45441;-61
2022/03/15 01:43:46;;;;;;;;;4.33;3.33;;;;;11.98;54.86;101591.13;5077286;27;45415;-62
2022/03/15 01:46:11;;;;;;;;;5.00;5.00;;;;;11.98;53.72;101591.13;5078033;28;45537;-61
2022/03/15 01:48:36;;;;;;;;;7.67;6.33;;;;;11.96;54.17;101585.91;5077477;28;46109;-62
2022/03/15 01:51:02;;;;;;;;;7.67;5.00;;;;;11.96;54.27;101579.78;5077136;27;45528;-62
2022/03/15 01:53:28;;;;;;;;;7.67;5.67;;;;;11.93;54.34;101578.94;5078411;27;45419;-62
2022/03/15 01:55:54;;;;;;;;;6.33;6.33;;;;;11.91;54.57;101570.19;5078286;28;45445;-61
2022/03/15 01:58:19;;;;;;;;;8.67;7.33;;;;;11.91;55.31;101569.34;5077442;27;46312;-61
2022/03/15 02:00:45;;;;;;;;;3.67;3.33;;;;;11.89;55.19;101561.44;5077458;27;45750;-61
2022/03/15 02:03:11;;;;;;;;;6.33;6.33;;;;;11.88;55.92;101564.16;5078042;28;45460;-61
2022/03/15 02:05:36;;;;;;;;;9.00;7.67;;;;;11.90;55.09;101564.94;5078116;27;45611;-61
2022/03/15 02:08:14;;;;;;;;;3.67;3.67;;;;;11.91;55.22;101561.44;5077935;27;45820;-61
2022/03/15 02:10:40;;;;;;;;;8.00;8.00;;;;;11.91;55.48;101558.78;5077919;27;45485;-61
2022/03/15 02:13:06;;;;;;;;;4.00;4.00;;;;;11.89;56.36;101548.28;5077604;27;45418;-62
2022/03/15 02:15:32;;;;;;;;;6.33;6.33;;;;;11.90;56.44;101557.94;5077811;27;45483;-61
2022/03/15 02:17:58;;;;;;;;;9.00;8.33;;;;;11.90;56.79;101550.03;5077725;28;45512;-63
2022/03/15 02:20:24;;;;;;;;;4.67;4.67;;;;;11.85;56.29;101538.69;5077818;28;45572;-61
2022/03/15 02:22:49;;;;;;;;;12.67;12.67;;;;;11.87;57.92;101543.94;5075914;28;45569;-61
2022/03/15 02:25:15;;;;;;;;;11.33;11.00;;;;;11.79;57.60;101546.72;5077621;27;45580;-61
2022/03/15 02:27:41;;;;;;;;;25.75;24.00;;;;;11.81;56.86;101539.66;5076734;28;45595;-61
2022/03/15 02:30:07;;;;;;;;;38.75;35.50;;;;;11.87;57.36;101530.75;5077125;28;45489;-61
2022/03/15 02:32:33;;;;;;;;;37.50;34.75;;;;;11.89;58.10;101524.53;5077059;27;45488;-62
2022/03/15 02:34:58;;;;;;;;;38.25;35.00;;;;;11.90;57.56;101523.66;5077452;28;45389;-61
2022/03/15 02:37:24;;;;;;;;;48.50;41.75;;;;;11.93;57.39;101522.72;5077044;27;47176;-61
2022/03/15 02:39:50;;;;;;;;;56.25;46.25;;;;;11.93;57.35;101523.56;5076564;27;45447;-61
2022/03/15 02:42:15;;;;;;;;;57.75;47.50;;;;;11.94;57.83;101522.66;5076752;28;45449;-62
2022/03/15 02:44:41;;;;;;;;;54.75;46.00;;;;;11.94;57.67;101512.13;5077470;27;45332;-62
2022/03/15 02:47:06;;;;;;;;;55.00;45.75;;;;;11.95;58.12;101520.88;5077304;28;46115;-62
2022/03/15 02:49:32;;;;;;;;;52.75;46.00;;;;;11.96;58.44;101517.38;5077080;28;45521;-61
2022/03/15 02:51:57;;;;;;;;;32.00;31.50;;;;;11.98;58.95;101504.13;5076828;27;45950;-62
2022/03/15 02:54:22;;;;;;;;;29.00;28.00;;;;;11.97;58.99;101508.53;5076886;27;52971;-62
2022/03/15 02:56:48;;;;;;;;;21.00;21.00;;;;;11.97;59.11;101505.91;5076440;28;46504;-62
2022/03/15 02:59:17;;;;;;;;;18.67;17.00;;;;;11.99;59.21;101500.59;5075344;27;45481;-62
2022/03/15 03:01:43;;;;;;;;;10.33;9.00;;;;;11.98;59.52;101491.78;5076728;28;45390;-61
2022/03/15 03:04:10;;;;;;;;;10.33;10.00;;;;;11.97;59.56;101492.72;5077179;27;45399;-61
2022/03/15 03:06:36;;;;;;;;;9.33;9.33;;;;;11.94;60.02;101483.13;5075276;28;45606;-61
2022/03/15 03:09:03;;;;;;;;;6.00;6.00;;;;;11.96;60.55;101484.88;5077287;27;45492;-62
2022/03/15 03:11:28;;;;;;;;;7.67;7.67;;;;;11.96;60.98;101488.38;5076563;27;45422;-61
2022/03/15 03:13:56;;;;;;;;;8.67;8.00;;;;;11.96;61.45;101487.50;5077055;27;45383;-62
2022/03/15 03:16:23;;;;;;;;;8.00;5.67;;;;;11.96;60.83;101485.72;5074738;28;46455;-62
2022/03/15 03:18:48;;;;;;;;;5.67;5.67;;;;;11.97;60.82;101478.69;5076501;27;45386;-61
2022/03/15 03:21:14;;;;;;;;;10.67;9.00;;;;;11.98;61.01;101488.31;5076500;27;45337;-61
2022/03/15 03:23:39;;;;;;;;;9.00;8.00;;;;;11.99;61.96;101484.78;5077021;28;45320;-62
2022/03/15 03:26:05;;;;;;;;;8.00;8.00;;;;;11.99;61.91;101480.38;5076366;28;46219;-62
2022/03/15 03:28:38;;;;;;;;;11.33;9.67;;;;;11.98;61.51;101490.94;5076299;28;45446;-62
2022/03/15 03:31:06;;;;;;;;;11.00;9.33;;;;;11.96;62.27;101485.72;5075091;27;45437;-62
2022/03/15 03:33:32;;;;;;;;;9.00;8.33;;;;;11.95;63.12;101483.97;5075540;27;45590;-62
2022/03/15 03:35:57;;;;;;;;;8.33;8.00;;;;;11.94;62.15;101490.16;5076406;27;45443;-61
2022/03/15 03:38:23;;;;;;;;;9.33;9.33;;;;;11.93;62.87;101491.94;5076075;27;45448;-61
2022/03/15 03:40:48;;;;;;;;;9.67;8.00;;;;;11.93;62.74;101493.72;5076546;28;45477;-61
2022/03/15 03:43:14;;;;;;;;;10.00;10.00;;;;;11.91;62.49;101485.84;5075776;28;45579;-62
2022/03/15 03:45:39;;;;;;;;;8.00;6.33;;;;;11.92;63.12;101486.69;5076345;27;45503;-61
2022/03/15 03:48:06;;;;;;;;;9.67;9.00;;;;;11.91;64.16;101490.25;5076541;27;45377;-61
2022/03/15 03:50:32;;;;;;;;;11.00;9.00;;;;;11.90;64.57;101477.97;5076517;27;45439;-61
2022/03/15 03:52:57;;;;;;;;;9.33;8.00;;;;;11.89;64.35;101471.81;5076074;27;45497;-61
2022/03/15 03:55:23;;;;;;;;;8.67;8.00;;;;;11.90;64.21;101475.31;5076221;28;45919;-62
2022/03/15 03:57:48;;;;;;;;;9.00;9.00;;;;;11.91;64.07;101477.06;5075888;28;45497;-62
2022/03/15 04:00:14;;;;;;;;;5.33;5.00;;;;;11.91;65.13;101477.94;5076585;27;45576;-63
2022/03/15 04:02:40;;;;;;;;;10.67;9.33;;;;;11.90;64.34;101483.22;5075804;27;45449;-61
2022/03/15 04:05:06;;;;;;;;;12.00;11.00;;;;;11.90;64.96;101472.69;5076173;28;45381;-61
2022/03/15 04:07:31;;;;;;;;;10.67;7.33;;;;;11.90;65.29;101464.78;5075255;28;45541;-62
2022/03/15 04:09:57;;;;;;;;;6.00;5.00;;;;;11.92;64.39;101468.25;5074779;28;45420;-62
2022/03/15 04:12:23;;;;;;;;;10.00;9.00;;;;;11.91;65.55;101456.84;5076178;27;45622;-63
2022/03/15 04:14:48;;;;;;;;;8.67;8.67;;;;;11.92;65.46;101453.28;5075975;27;45531;-61
2022/03/15 04:17:14;;;;;;;;;11.00;11.00;;;;;11.92;65.70;101450.66;5075801;27;45486;-62
2022/03/15 04:19:40;;;;;;;;;12.00;11.00;;;;;11.92;65.58;101455.06;5076275;27;45506;-61
2022/03/15 04:22:06;;;;;;;;;10.33;10.33;;;;;11.93;65.69;101447.13;5074797;27;45548;-61
2022/03/15 04:24:32;;;;;;;;;6.33;6.33;;;;;11.94;65.27;101448.00;5075969;27;45501;-62
2022/03/15 04:26:59;;;;;;;;;9.67;9.67;;;;;11.94;65.27;101450.63;5075854;27;45451;-62
2022/03/15 04:29:26;;;;;;;;;11.00;10.00;;;;;11.96;65.42;101453.22;5076001;27;45404;-62
2022/03/15 04:31:51;;;;;;;;;12.33;11.33;;;;;11.95;65.52;101447.06;5075466;27;45613;-62
2022/03/15 04:34:17;;;;;;;;;9.33;9.33;;;;;11.97;65.83;101447.91;5075652;28;45444;-62
2022/03/15 04:36:44;;;;;;;;;5.33;5.33;;;;;11.97;66.40;101442.63;5074102;27;45418;-61
2022/03/15 04:39:13;;;;;;;;;9.00;8.00;;;;;11.96;65.62;101442.69;5075798;27;45451;-62
2022/03/15 04:41:39;;;;;;;;;10.00;10.00;;;;;11.95;66.20;101447.06;5074888;28;45442;-61
2022/03/15 04:44:06;;;;;;;;;11.67;11.67;;;;;11.96;66.03;101438.28;5075319;28;45421;-61
2022/03/15 04:46:32;;;;;;;;;8.00;8.00;;;;;11.98;65.94;101428.53;5075460;28;45401;-62
2022/03/15 04:48:57;;;;;;;;;10.67;9.67;;;;;11.98;65.93;101431.16;5075491;27;45440;-62
2022/03/15 04:51:24;;;;;;;;;12.00;12.00;;;;;11.98;66.31;101436.44;5074535;28;45485;-61
2022/03/15 04:53:50;;;;;;;;;12.00;10.00;;;;;11.97;66.45;101442.63;5075543;27;46617;-62
2022/03/15 04:56:15;;;;;;;;;6.00;6.00;;;;;11.97;66.65;101439.13;5075154;27;45410;-62
2022/03/15 04:58:41;;;;;;;;;11.33;11.00;;;;;11.96;66.87;101434.78;5075040;27;45516;-61
2022/03/15 05:01:07;;;;;;;;;10.00;10.00;;;;;11.96;67.03;101426.88;5074487;27;45342;-61
2022/03/15 05:03:33;;;;;;;;;11.67;11.33;;;;;11.97;67.52;101428.59;5074884;28;45994;-62
2022/03/15 05:06:00;;;;;;;;;10.00;10.00;;;;;11.97;66.86;101428.59;5075234;27;45544;-61
2022/03/15 05:08:26;;;;;;;;;9.67;9.67;;;;;11.98;67.63;101430.31;5074950;28;45382;-60
2022/03/15 05:11:06;;;;;;;;;12.33;12.33;;;;;11.99;67.41;101430.28;5074686;27;45351;-60
2022/03/15 05:13:40;;;;;;;;;11.00;10.00;;;;;12.01;67.87;101440.75;5073138;28;46090;-62
2022/03/15 05:16:12;;;;;;;;;10.33;8.33;;;;;12.00;67.76;101433.78;5075252;27;45448;-62
2022/03/15 05:18:40;;;;;;;;;10.33;10.33;;;;;11.98;67.53;101430.31;5075031;27;45808;-61
2022/03/15 05:21:07;;;;;;;;;10.33;10.33;;;;;11.99;67.78;101432.06;5074076;27;45388;-62
2022/03/15 05:23:33;;;;;;;;;11.00;11.00;;;;;11.98;68.39;101430.31;5074402;27;46534;-62
2022/03/15 05:25:58;;;;;;;;;18.00;12.00;;;;;11.96;68.42;101427.72;5074854;27;45454;-62
2022/03/15 05:28:24;;;;;;;;;8.67;8.67;;;;;11.98;68.09;101431.16;5075168;27;45377;-62
2022/03/15 05:30:50;;;;;;;;;1.00;0.00;;;;;11.97;68.30;101434.72;5075082;27;45381;-63
2022/03/15 05:33:15;;;;;;;;;11.00;11.00;;;;;11.95;68.39;101425.97;5073923;27;46205;-61
2022/03/15 05:35:41;;;;;;;;;12.00;10.00;;;;;12.00;68.06;101436.41;5077511;27;45346;-60
2022/03/15 05:38:06;;;;;;;;;13.00;13.00;;;;;12.01;68.82;101436.38;5078513;27;45385;-62
2022/03/15 05:40:31;;;;;;;;;12.00;12.00;;;;;12.02;68.97;101438.09;5078228;27;45653;-62
2022/03/15 05:42:57;;;;;;;;;10.00;10.00;;;;;12.01;67.97;101436.38;5078388;27;45815;-63
2022/03/15 05:45:24;;;;;;;;;9.00;9.00;;;;;12.00;68.27;101434.63;5078259;28;45448;-63
2022/03/15 05:47:50;;;;;;;;;10.67;10.67;;;;;11.99;68.69;101430.28;5077590;28;45456;-63
2022/03/15 05:50:15;;;;;;;;;12.00;12.00;;;;;11.97;68.77;101426.81;5078317;27;45635;-63
2022/03/15 05:52:41;;;;;;;;;12.00;12.00;;;;;11.97;68.58;101437.34;5077631;28;45892;-62
2022/03/15 05:55:07;;;;;;;;;11.33;10.33;;;;;11.96;68.86;101446.19;5078019;27;45500;-62
2022/03/15 05:57:32;;;;;;;;;11.33;10.33;;;;;11.91;69.40;101441.03;5076718;28;45526;-62
2022/03/15 05:59:58;;;;;;;;;11.00;11.00;;;;;11.92;69.63;101441.88;5077862;27;45343;-63
2022/03/15 06:02:23;;;;;;;;;14.67;11.67;;;;;11.88;69.56;101435.84;5077171;27;45399;-63
2022/03/15 06:04:49;;;;;;;;;15.00;11.00;;;;;11.90;69.50;101441.06;5076960;28;45592;-61
2022/03/15 06:07:14;;;;;;;;;11.00;10.67;;;;;11.88;69.74;101438.47;5077000;27;48839;-61
2022/03/15 06:09:40;;;;;;;;;11.00;11.00;;;;;11.88;69.89;101446.38;5077783;27;45359;-62
2022/03/15 06:12:07;;;;;;;;;12.00;11.33;;;;;11.89;69.67;101444.59;5077570;28;46291;-61
2022/03/15 06:14:32;;;;;;;;;8.00;8.00;;;;;11.88;70.14;101440.25;5077646;27;45572;-61
2022/03/15 06:16:58;;;;;;;;;12.67;12.67;;;;;11.89;70.40;101444.59;5077529;28;45426;-61
2022/03/15 06:19:23;;;;;;;;;10.00;10.00;;;;;11.91;69.92;101453.34;5077717;27;45547;-61
2022/03/15 06:21:48;;;;;;;;;13.67;13.67;;;;;11.92;69.48;101453.28;5080035;27;45527;-62
2022/03/15 06:24:14;;;;;;;;;16.67;16.00;;;;;11.92;69.86;101447.16;5075334;27;45615;-73
2022/03/15 06:26:39;;;;;;;;;10.00;10.00;;;;;11.91;69.70;101451.56;5080169;27;45496;-62
2022/03/15 06:29:05;;;;;;;;;13.00;12.33;;;;;11.94;69.41;101442.72;5060880;27;45627;-71
2022/03/15 06:31:31;;;;;;;;;12.33;12.33;;;;;11.94;70.11;101440.09;5077157;27;46239;-71
2022/03/15 06:33:58;;;;;;;;;15.67;14.67;;;;;11.97;70.29;101444.41;5076977;27;45389;-70
2022/03/15 06:36:23;;;;;;;;;16.33;14.33;;;;;11.94;70.57;101448.00;5076724;28;45436;-71
2022/03/15 06:38:51;;;;;;;;;15.00;15.00;;;;;11.96;70.42;101440.06;5077229;28;45513;-72
2022/03/15 06:41:17;;;;;;;;;15.67;15.67;;;;;11.96;70.49;101446.19;5076823;28;45931;-74
2022/03/15 06:43:43;;;;;;;;;15.67;13.00;;;;;11.96;70.07;101438.28;5075077;27;45607;-74
2022/03/15 06:46:09;;;;;;;;;16.67;14.33;;;;;12.00;70.59;101439.91;5076335;27;45408;-74
2022/03/15 06:48:35;;;;;;;;;17.00;15.33;;;;;12.02;70.71;101448.63;5076298;28;45675;-72
2022/03/15 06:51:00;;;;;;;;;16.00;13.00;;;;;12.02;69.91;101448.63;5076288;27;45528;-71
2022/03/15 06:53:26;;;;;;;;;20.33;20.00;;;;;12.00;70.01;101444.31;5076453;27;45337;-72
2022/03/15 06:55:51;;;;;;;;;18.67;17.33;;;;;12.00;69.99;101439.03;5076735;28;45435;-70
2022/03/15 06:58:17;;;;;;;;;19.00;19.00;;;;;12.00;70.16;101447.81;5075925;27;45555;-68
2022/03/15 07:00:43;;;;;;;;;20.33;18.33;;;;;12.01;70.01;101436.38;5075766;28;46062;-70
2022/03/15 07:03:09;;;;;;;;;18.67;17.67;;;;;12.00;70.55;101434.63;5076263;28;45371;-69
2022/03/15 07:05:34;;;;;;;;;20.00;20.00;;;;;12.00;70.25;101420.59;5076425;27;45605;-69
2022/03/15 07:08:02;;;;;;;;;21.00;20.00;;;;;12.00;70.09;101428.50;5075705;27;45292;-68
2022/03/15 07:10:28;;;;;;;;;20.67;19.67;;;;;11.97;70.88;101434.72;5075399;28;45436;-69
2022/03/15 07:12:54;;;;;;;;;19.67;17.67;;;;;11.96;70.47;101435.63;5075644;27;45489;-69
2022/03/15 07:15:20;;;;;;;;;18.00;18.00;;;;;11.97;70.61;101447.03;5076191;27;45449;-69
2022/03/15 07:17:54;;;;;;;;;18.67;18.67;;;;;11.97;71.33;101447.91;5074452;27;45558;-69
2022/03/15 07:20:21;;;;;;;;;15.33;15.33;;;;;11.98;70.65;101451.41;5072656;28;45539;-69
2022/03/15 07:22:47;;;;;;;;;22.00;19.33;;;;;12.00;71.08;101449.59;5074696;28;45439;-69
2022/03/15 07:25:13;;;;;;;;;19.33;19.33;;;;;12.00;71.46;101447.81;5075050;28;45365;-60
2022/03/15 07:27:39;;;;;;;;;16.67;15.33;;;;;11.99;70.56;101458.41;5075648;27;45700;-60
2022/03/15 07:30:05;;;;;;;;;21.67;20.00;;;;;12.01;71.30;101443.41;5074831;28;45560;-61
2022/03/15 07:32:31;;;;;;;;;21.50;20.50;;;;;12.01;71.04;101449.56;5074975;27;45543;-59
2022/03/15 07:34:56;;;;;;;;;23.33;21.33;;;;;12.01;70.60;101462.75;5072155;27;45497;-59
2022/03/15 07:37:22;;;;;;;;;20.67;19.00;;;;;12.01;71.40;101461.84;5072262;27;45508;-60
2022/03/15 07:39:47;;;;;;;;;22.00;22.00;;;;;12.02;71.62;101455.69;5072107;28;46270;-60
2022/03/15 07:42:13;;;;;;;;;21.00;21.00;;;;;12.03;71.45;101449.50;5071468;27;45501;-60
2022/03/15 07:44:42;;;;;;;;;24.75;23.75;;;;;12.04;70.89;101435.44;5074279;28;45523;-60
2022/03/15 07:47:07;;;;;;;;;23.75;20.75;;;;;12.07;71.14;101445.88;5075566;27;45583;-60
2022/03/15 07:49:32;;;;;;;;;27.75;24.75;;;;;12.06;70.64;101441.50;5075462;28;45504;-59
2022/03/15 07:51:58;;;;;;;;;23.67;20.67;;;;;12.08;70.57;101447.59;5075161;27;45494;-60
2022/03/15 07:54:23;;;;;;;;;18.67;18.00;;;;;12.09;71.76;101444.94;5075853;27;45922;-60
2022/03/15 07:56:50;;;;;;;;;22.25;20.75;;;;;12.12;70.71;101425.53;5074430;28;45413;-58
2022/03/15 07:59:15;;;;;;;;;22.00;20.33;;;;;12.13;70.79;101432.53;5075806;28;45414;-59
2022/03/15 08:01:41;;;;;;;;;20.00;20.00;;;;;12.17;71.08;101439.44;5075546;27;45431;-61
2022/03/15 08:04:06;;;;;;;;;27.75;27.75;;;;;12.20;71.42;101430.56;5074948;28;45585;-59
2022/03/15 08:06:32;;;;;;;;;25.75;24.00;;;;;12.19;71.20;101424.41;5074845;27;45348;-58
2022/03/15 08:08:59;;;;;;;;;26.75;24.25;;;;;12.22;70.78;101423.47;5074772;27;45471;-61
2022/03/15 08:11:25;;;;;;;;;24.50;24.25;;;;;12.22;71.51;101426.97;5075620;28;45444;-58
2022/03/15 08:13:54;;;;;;;;;24.00;21.67;;;;;12.23;70.47;101430.50;5075545;27;45447;-60
2022/03/15 08:16:23;;;;;;;;;23.00;23.00;;;;;12.22;71.58;101429.59;5075547;28;45624;-62
2022/03/15 08:18:53;;;;;;;;;24.50;22.25;;;;;12.22;71.03;101432.25;5075242;27;46082;-58
2022/03/15 08:21:20;;;;;;;;;23.33;23.33;;;;;12.25;71.64;101429.53;5075275;28;45491;-60
2022/03/15 08:23:45;;;;;;;;;25.33;23.33;;;;;12.24;70.96;101417.25;5075388;27;45400;-60
2022/03/15 08:26:11;;;;;;;;;22.00;19.00;;;;;12.26;71.36;101414.56;5073914;28;45395;-59
2022/03/15 08:28:37;;;;;;;;;23.67;20.00;;;;;12.25;70.95;101413.72;5075129;27;45425;-59
2022/03/15 08:31:03;;;;;;;;;24.67;21.00;;;;;12.23;71.50;101412.03;5075286;28;45403;-61
2022/03/15 08:33:28;;;;;;;;;18.67;18.33;;;;;12.25;70.61;101418.09;5075333;27;45473;-59
2022/03/15 08:35:53;;;;;;;;;18.33;18.00;;;;;12.24;70.83;101430.44;5075097;27;45662;-60
2022/03/15 08:38:20;;;;;;;;;22.33;20.00;;;;;12.23;71.46;101436.63;5075014;28;45556;-58
2022/03/15 08:40:46;;;;;;;;;26.67;26.00;;;;;12.23;71.48;101448.97;5075243;27;45405;-60
2022/03/15 08:43:11;;;;;;;;;19.00;18.00;;;;;12.25;70.74;101455.03;5075176;27;45423;-60
2022/03/15 08:45:38;;;;;;;;;20.67;19.33;;;;;12.26;70.95;101447.09;5075198;27;45505;-65
2022/03/15 08:48:04;;;;;;;;;24.00;20.00;;;;;12.26;71.62;101456.78;5074937;28;45443;-59
2022/03/15 08:50:30;;;;;;;;;26.33;24.00;;;;;12.26;70.63;101452.38;5074815;28;45395;-60
2022/03/15 08:52:55;;;;;;;;;20.67;18.67;;;;;12.26;71.45;101448.88;5075104;27;45394;-59
2022/03/15 08:55:22;;;;;;;;;22.33;22.33;;;;;12.25;70.84;101444.47;5074910;28;45461;-60
2022/03/15 08:57:48;;;;;;;;;21.00;21.00;;;;;12.23;71.24;101452.44;5074761;27;45954;-60
2022/03/15 09:00:14;;;;;;;;;25.00;24.33;;;;;12.25;70.58;101465.56;5074727;27;45450;-59
2022/03/15 09:02:39;;;;;;;;;25.00;20.00;;;;;12.24;71.60;101456.81;5074856;28;45501;-60
2022/03/15 09:05:05;;;;;;;;;25.33;22.00;;;;;12.26;71.58;101446.22;5074925;27;45546;-59
2022/03/15 09:07:30;;;;;;;;;24.67;23.33;;;;;12.27;71.60;101443.53;5074944;27;45563;-59
2022/03/15 09:09:56;;;;;;;;;71.00;54.50;;;;;12.30;71.16;101450.50;5077967;27;45408;-59
2022/03/15 09:12:22;;;;;;;;;31.25;29.00;;;;;12.30;71.08;101453.97;5078354;27;45478;-60
2022/03/15 09:14:48;;;;;;;;;23.67;20.67;;;;;12.30;71.77;101453.97;5078406;28;45405;-59
2022/03/15 09:17:14;;;;;;;;;22.33;20.00;;;;;12.33;70.66;101463.59;5078169;27;46128;-59
2022/03/15 09:19:40;;;;;;;;;24.33;22.67;;;;;12.34;71.15;101457.41;5078025;27;45497;-60
2022/03/15 09:22:07;;;;;;;;;24.33;23.00;;;;;12.36;71.21;101463.53;5078101;27;45388;-59
2022/03/15 09:24:34;;;;;;;;;27.25;24.00;;;;;12.37;72.14;101460.81;5078201;27;45697;-60
2022/03/15 09:26:59;;;;;;;;;28.25;26.00;;;;;12.38;71.62;101449.38;5077889;28;45417;-61
2022/03/15 09:29:25;;;;;;;;;25.00;21.00;;;;;12.41;71.08;101466.00;5077862;27;45494;-61
2022/03/15 09:31:50;;;;;;;;;22.33;20.00;;;;;12.41;71.64;101456.31;5078198;28;45628;-59
2022/03/15 09:34:17;;;;;;;;;25.00;23.33;;;;;12.42;70.92;101454.56;5078057;27;45461;-60
2022/03/15 09:36:44;;;;;;;;;25.00;22.33;;;;;12.42;71.22;101447.50;5077772;28;46217;-61
2022/03/15 09:39:09;;;;;;;;;27.25;26.00;;;;;12.41;70.95;101445.75;5077741;27;45461;-59
2022/03/15 09:41:39;;;;;;;;;25.00;23.33;;;;;12.40;70.98;101444.03;5078066;27;45445;-59
2022/03/15 09:44:07;;;;;;;;;24.50;24.50;;;;;12.40;71.24;101437.91;5077813;27;45487;-58
2022/03/15 09:46:38;;;;;;;;;26.00;25.00;;;;;12.35;71.35;101441.53;5077552;27;46021;-61
2022/03/15 09:49:07;;;;;;;;;29.25;26.75;;;;;12.36;72.08;101438.00;5077938;27;45444;-59
2022/03/15 09:51:34;;;;;;;;;25.25;23.25;;;;;12.35;72.08;101433.63;5077704;27;45429;-61
2022/03/15 09:54:02;;;;;;;;;30.50;28.50;;;;;12.33;71.88;101427.53;5077874;27;45441;-61
2022/03/15 09:56:29;;;;;;;;;27.50;26.00;;;;;12.35;71.82;101424.84;5077298;28;45601;-61
2022/03/15 09:58:54;;;;;;;;;37.50;35.00;;;;;12.34;72.56;101416.06;5077780;28;45514;-60
2022/03/15 10:01:19;;;;;;;;;30.00;28.00;;;;;12.36;71.63;101423.97;5077555;27;45392;-63
2022/03/15 10:03:46;;;;;;;;;24.50;24.00;;;;;12.33;72.22;101418.75;5077655;27;45411;-60
2022/03/15 10:06:15;;;;;;;;;32.25;26.75;;;;;12.32;71.88;101422.31;5077188;28;45698;-61
2022/03/15 10:08:42;;;;;;;;;28.50;27.00;;;;;12.31;71.82;101418.81;5077027;27;45394;-59
2022/03/15 10:11:07;;;;;;;;;23.25;20.50;;;;;12.31;72.45;101420.59;5077287;27;45683;-59
2022/03/15 10:13:33;;;;;;;;;23.50;23.50;;;;;12.28;72.48;101424.19;5077215;28;45468;-58
2022/03/15 10:16:00;;;;;;;;;27.67;26.33;;;;;12.30;72.47;101418.84;5076830;27;46076;-60
2022/03/15 10:18:26;;;;;;;;;24.75;24.00;;;;;12.31;72.61;101415.31;5076922;27;45413;-60
2022/03/15 10:20:52;;;;;;;;;28.50;25.50;;;;;12.31;72.17;101426.72;5076333;27;45427;-60
2022/03/15 10:23:21;;;;;;;;;25.75;24.75;;;;;12.33;71.42;101424.00;5077185;28;45450;-60
2022/03/15 10:25:50;;;;;;;;;22.00;22.00;;;;;12.34;71.88;101429.25;5076648;27;45931;-59
2022/03/15 10:28:16;;;;;;;;;25.33;24.00;;;;;12.37;72.19;101415.97;5077057;27;45493;-58
2022/03/15 10:30:44;;;;;;;;;32.00;30.50;;;;;12.41;71.68;101414.09;5077184;27;45466;-60
2022/03/15 10:33:10;;;;;;;;;28.00;28.00;;;;;12.42;72.66;101410.56;5076958;27;45606;-58
2022/03/15 10:35:45;;;;;;;;;30.75;30.75;;;;;12.43;72.33;101417.56;5076849;27;45348;-60
2022/03/15 10:38:11;;;;;;;;;28.00;26.25;;;;;12.44;71.92;101413.16;5076345;27;45553;-61
2022/03/15 10:40:39;;;;;;;;;27.00;27.00;;;;;12.45;72.44;101404.34;5076778;27;45508;-61
2022/03/15 10:43:07;;;;;;;;;27.00;24.25;;;;;12.48;72.06;101415.66;5076664;27;45486;-59
2022/03/15 10:45:34;;;;;;;;;30.67;28.67;;;;;12.50;72.34;101420.91;5076761;27;45983;-59
2022/03/15 10:48:01;;;;;;;;;27.67;25.67;;;;;12.51;71.80;101414.69;5076380;27;45421;-60
2022/03/15 10:50:29;;;;;;;;;32.50;29.00;;;;;12.53;71.71;101408.47;5075251;28;45449;-61
2022/03/15 10:52:55;;;;;;;;;41.75;36.50;;;;;12.54;72.05;101409.31;5076524;27;45467;-60
2022/03/15 10:55:25;;;;;;;;;37.75;32.75;;;;;12.54;72.11;101412.81;5076600;28;45628;-60
2022/03/15 10:57:54;;;;;;;;;27.67;24.33;;;;;12.57;72.18;101398.69;5076504;27;45500;-60
2022/03/15 11:00:26;;;;;;;;;29.75;27.75;;;;;12.58;71.69;101405.69;5075990;27;45359;-60
2022/03/15 11:02:53;;;;;;;;;38.25;35.75;;;;;12.57;71.67;101396.94;5076261;27;45387;-60
2022/03/15 11:05:35;;;;;;;;;30.00;26.75;;;;;12.58;72.07;101398.63;5075848;28;45433;-59
2022/03/15 11:08:05;;;;;;;;;26.00;25.00;;;;;12.59;71.75;101392.44;5076077;27;45389;-60
2022/03/15 11:10:31;;;;;;;;;29.00;26.50;;;;;12.60;71.67;101394.19;5076339;28;45507;-60